createdAt,value
2022-09-24T00:01:16.660Z,8.05
2022-09-24T00:03:50.152Z,7.65
2022-09-24T00:06:19.270Z,8.65
2022-09-24T00:08:47.551Z,8.98
2022-09-24T00:11:14.635Z,8.65
2022-09-24T00:13:41.763Z,7.93
2022-09-24T00:16:13.477Z,8.40
2022-09-24T00:18:40.962Z,9.23
2022-09-24T00:21:16.338Z,8.65
2022-09-24T00:23:43.446Z,9.57
2022-09-24T00:26:32.032Z,8.48
2022-09-24T00:28:59.328Z,9.98
2022-09-24T00:31:26.686Z,9.77
2022-09-24T00:33:54.372Z,9.80
2022-09-24T00:36:22.295Z,9.88
2022-09-24T00:38:54.195Z,9.40
2022-09-24T00:41:24.173Z,9.27
2022-09-24T00:43:51.546Z,9.00
2022-09-24T00:46:27.910Z,10.63
2022-09-24T00:48:58.743Z,10.40
2022-09-24T00:51:28.502Z,10.30
2022-09-24T00:53:59.993Z,8.65
2022-09-24T00:56:28.422Z,10.02
2022-09-24T00:58:57.217Z,9.48
2022-09-24T01:01:25.601Z,9.10
2022-09-24T01:03:55.471Z,9.27
2022-09-24T01:06:22.673Z,7.82
2022-09-24T01:08:49.512Z,9.18
2022-09-24T01:11:41.021Z,9.75
2022-09-24T01:14:39.224Z,9.83
2022-09-24T01:17:32.867Z,9.23
2022-09-24T01:20:26.812Z,9.35
2022-09-24T01:23:05.404Z,9.20
2022-09-24T01:26:02.923Z,10.10
2022-09-24T01:29:05.965Z,9.52
2022-09-24T01:31:44.556Z,9.77
2022-09-24T01:34:15.781Z,9.63
2022-09-24T01:36:45.350Z,9.07
2022-09-24T01:39:14.620Z,9.00
2022-09-24T01:41:43.159Z,9.45
2022-09-24T01:44:11.724Z,10.32
2022-09-24T01:46:40.241Z,9.60
2022-09-24T01:49:08.210Z,9.80
2022-09-24T01:51:44.056Z,9.38
2022-09-24T01:54:28.516Z,9.35
2022-09-24T01:57:13.298Z,9.25
2022-09-24T01:59:47.132Z,9.77
2022-09-24T02:02:30.494Z,9.88
2022-09-24T02:05:12.979Z,10.38
2022-09-24T02:07:47.047Z,10.75
2022-09-24T02:10:16.902Z,10.23
2022-09-24T02:12:47.149Z,10.45
2022-09-24T02:15:20.896Z,10.70
2022-09-24T02:17:53.572Z,9.88
2022-09-24T02:20:23.219Z,9.65
2022-09-24T02:22:51.714Z,9.32
2022-09-24T02:25:25.143Z,10.77
2022-09-24T02:27:51.814Z,10.38
2022-09-24T02:30:18.382Z,10.52
2022-09-24T02:32:45.074Z,10.60
2022-09-24T02:35:12.809Z,10.13
2022-09-24T02:37:42.414Z,9.85
2022-09-24T02:40:12.185Z,11.15
2022-09-24T02:42:41.102Z,11.23
2022-09-24T02:45:08.462Z,10.95
2022-09-24T02:47:35.019Z,10.90
2022-09-24T02:50:01.671Z,11.68
2022-09-24T02:52:28.220Z,10.40
2022-09-24T02:54:54.758Z,11.18
2022-09-24T02:57:21.245Z,11.43
2022-09-24T02:59:47.929Z,12.00
2022-09-24T03:02:15.392Z,10.85
2022-09-24T03:04:42.646Z,11.07
2022-09-24T03:07:10.291Z,11.13
2022-09-24T03:09:36.961Z,10.73
2022-09-24T03:12:05.224Z,11.18
2022-09-24T03:14:31.966Z,10.80
2022-09-24T03:16:58.690Z,10.10
2022-09-24T03:19:25.213Z,9.68
2022-09-24T03:21:51.741Z,10.88
2022-09-24T03:24:18.239Z,10.55
2022-09-24T03:26:45.354Z,10.13
2022-09-24T03:29:11.898Z,10.10
2022-09-24T03:31:38.501Z,9.60
2022-09-24T03:34:05.274Z,10.75
2022-09-24T03:36:31.869Z,9.93
2022-09-24T03:38:58.370Z,10.32
2022-09-24T03:41:27.508Z,9.35
2022-09-24T03:43:54.791Z,9.93
2022-09-24T03:46:22.109Z,9.80
2022-09-24T03:48:49.167Z,9.60
2022-09-24T03:51:20.297Z,9.68
2022-09-24T03:53:47.915Z,10.07
2022-09-24T03:56:15.632Z,11.10
2022-09-24T03:58:47.697Z,12.10
2022-09-24T04:01:14.519Z,12.77
2022-09-24T04:03:41.100Z,11.32
2022-09-24T04:06:07.915Z,11.82
2022-09-24T04:08:34.469Z,11.05
2022-09-24T04:11:01.094Z,10.20
2022-09-24T04:13:27.669Z,10.52
2022-09-24T04:15:55.124Z,10.25
2022-09-24T04:18:22.181Z,9.82
2022-09-24T04:20:48.837Z,9.95
2022-09-24T04:23:15.484Z,9.23
2022-09-24T04:25:42.371Z,9.88
2022-09-24T04:28:09.944Z,9.60
2022-09-24T04:30:38.159Z,9.43
2022-09-24T04:33:04.789Z,8.98
2022-09-24T04:35:36.006Z,8.70
2022-09-24T04:38:04.048Z,10.70
2022-09-24T04:40:31.434Z,8.93
2022-09-24T04:42:58.139Z,9.20
2022-09-24T04:45:25.115Z,7.63
2022-09-24T04:47:53.605Z,9.00
2022-09-24T04:50:20.660Z,7.75
2022-09-24T04:52:47.292Z,8.30
2022-09-24T04:55:14.188Z,8.65
2022-09-24T04:57:41.435Z,7.22
2022-09-24T05:00:15.353Z,7.72
2022-09-24T05:02:42.801Z,8.07
2022-09-24T05:05:11.001Z,6.75
2022-09-24T05:07:38.734Z,8.25
2022-09-24T05:10:06.761Z,7.60
2022-09-24T05:12:35.433Z,7.32
2022-09-24T05:15:02.590Z,7.63
2022-09-24T05:17:29.195Z,7.85
2022-09-24T05:19:57.893Z,7.72
2022-09-24T05:22:27.511Z,7.30
2022-09-24T05:24:54.528Z,8.05
2022-09-24T05:27:21.771Z,7.22
2022-09-24T05:29:48.286Z,6.85
2022-09-24T05:32:19.938Z,7.20
2022-09-24T05:34:46.769Z,7.60
2022-09-24T05:37:14.840Z,7.53
2022-09-24T05:39:41.814Z,8.07
2022-09-24T05:42:15.754Z,7.75
2022-09-24T05:44:48.628Z,7.65
2022-09-24T05:47:18.498Z,8.32
2022-09-24T05:49:45.214Z,8.25
2022-09-24T05:52:11.932Z,7.88
2022-09-24T05:54:38.467Z,7.68
2022-09-24T05:57:05.003Z,8.05
2022-09-24T05:59:32.291Z,7.45
2022-09-24T06:01:58.838Z,7.47
2022-09-24T06:04:25.490Z,6.72
2022-09-24T06:06:52.309Z,7.13
2022-09-24T06:09:18.825Z,6.85
2022-09-24T06:11:45.910Z,6.93
2022-09-24T06:14:13.314Z,6.82
2022-09-24T06:16:40.013Z,6.93
2022-09-24T06:19:06.701Z,6.82
2022-09-24T06:21:33.234Z,7.95
2022-09-24T06:23:59.779Z,6.50
2022-09-24T06:26:27.337Z,6.82
2022-09-24T06:28:54.379Z,6.72
2022-09-24T06:31:21.315Z,6.93
2022-09-24T06:33:48.154Z,5.90
2022-09-24T06:36:14.789Z,7.03
2022-09-24T06:38:41.933Z,6.75
2022-09-24T06:41:10.160Z,5.95
2022-09-24T06:43:37.497Z,6.88
2022-09-24T06:46:05.041Z,7.10
2022-09-24T06:48:32.209Z,7.07
2022-09-24T06:50:58.827Z,6.82
2022-09-24T06:53:26.063Z,6.85
2022-09-24T06:55:53.402Z,6.20
2022-09-24T06:58:21.037Z,7.07
2022-09-24T07:01:06.645Z,7.10
2022-09-24T07:03:35.005Z,6.47
2022-09-24T07:06:05.142Z,6.72
2022-09-24T07:08:32.108Z,6.70
2022-09-24T07:10:59.025Z,7.68
2022-09-24T07:13:25.691Z,7.32
2022-09-24T07:15:52.899Z,8.00
2022-09-24T07:18:20.514Z,7.40
2022-09-24T07:20:54.752Z,7.07
2022-09-24T07:23:21.889Z,6.57
2022-09-24T07:25:49.333Z,6.47
2022-09-24T07:28:16.921Z,7.13
2022-09-24T07:30:43.631Z,7.00
2022-09-24T07:33:10.214Z,7.00
2022-09-24T07:35:40.022Z,5.90
2022-09-24T07:38:12.086Z,6.10
2022-09-24T07:43:06.981Z,6.47
2022-09-24T07:45:34.041Z,6.03
2022-09-24T07:48:02.760Z,7.35
2022-09-24T07:50:32.427Z,6.25
2022-09-24T07:52:59.132Z,6.90
2022-09-24T07:55:26.113Z,5.88
2022-09-24T07:57:54.910Z,5.72
2022-09-24T08:00:22.928Z,6.00
2022-09-24T08:02:50.162Z,6.90
2022-09-24T08:05:18.170Z,7.55
2022-09-24T08:07:55.751Z,7.68
2022-09-24T08:10:23.147Z,6.85
2022-09-24T08:12:50.457Z,6.82
2022-09-24T08:15:17.144Z,6.78
2022-09-24T08:17:43.765Z,7.55
2022-09-24T08:20:10.764Z,8.07
2022-09-24T08:22:37.346Z,7.28
2022-09-24T08:25:04.815Z,7.70
2022-09-24T08:27:32.945Z,7.78
2022-09-24T08:30:00.710Z,7.90
2022-09-24T08:32:28.993Z,7.65
2022-09-24T08:34:55.560Z,8.75
2022-09-24T08:37:22.510Z,8.13
2022-09-24T08:39:49.113Z,7.85
2022-09-24T08:42:31.511Z,8.82
2022-09-24T08:45:17.344Z,8.15
2022-09-24T08:47:55.107Z,8.05
2022-09-24T08:50:29.278Z,8.35
2022-09-24T08:53:06.595Z,8.05
2022-09-24T08:55:49.941Z,8.88
2022-09-24T08:58:55.192Z,8.45
2022-09-24T09:01:38.906Z,8.90
2022-09-24T09:04:14.274Z,8.57
2022-09-24T09:07:06.409Z,8.35
2022-09-24T09:10:11.104Z,9.45
2022-09-24T09:12:42.571Z,8.20
2022-09-24T09:15:18.071Z,10.48
2022-09-24T09:18:05.095Z,11.05
2022-09-24T09:20:41.247Z,12.90
2022-09-24T09:23:13.941Z,12.73
2022-09-24T09:25:47.320Z,13.57
2022-09-24T09:28:15.606Z,14.23
2022-09-24T09:31:00.380Z,15.98
2022-09-24T09:33:47.928Z,15.85
2022-09-24T09:36:37.164Z,16.35
2022-09-24T09:39:59.109Z,14.82
2022-09-24T09:42:36.153Z,14.60
2022-09-24T09:45:07.537Z,16.80
2022-09-24T09:47:45.948Z,17.35
2022-09-24T09:50:27.540Z,16.00
2022-09-24T09:52:55.582Z,14.55
2022-09-24T09:55:26.401Z,12.30
2022-09-24T09:57:54.416Z,12.73
2022-09-24T10:00:27.603Z,10.55
2022-09-24T10:02:54.987Z,11.73
2022-09-24T10:05:27.361Z,10.73
2022-09-24T10:07:58.270Z,10.57
2022-09-24T10:10:28.952Z,10.48
2022-09-24T10:13:09.051Z,10.20
2022-09-24T10:15:49.085Z,11.13
2022-09-24T10:18:16.594Z,9.95
2022-09-24T10:20:48.224Z,9.50
2022-09-24T10:23:22.967Z,9.15
2022-09-24T10:25:59.881Z,8.93
2022-09-24T10:28:46.426Z,8.35
2022-09-24T10:31:29.603Z,8.40
2022-09-24T10:33:59.116Z,8.15
2022-09-24T10:36:32.649Z,6.85
2022-09-24T10:39:08.397Z,7.68
2022-09-24T10:41:36.006Z,6.88
2022-09-24T10:44:11.700Z,5.47
2022-09-24T10:46:56.940Z,6.82
2022-09-24T10:49:27.402Z,4.10
2022-09-24T10:52:10.274Z,4.78
2022-09-24T10:54:49.915Z,4.40
2022-09-24T10:57:39.713Z,4.22
2022-09-24T11:00:18.389Z,4.00
2022-09-24T11:02:58.041Z,4.70
2022-09-24T11:05:49.861Z,4.50
2022-09-24T11:08:46.943Z,3.92
2022-09-24T11:11:37.640Z,4.45
2022-09-24T11:14:23.764Z,4.30
2022-09-24T11:17:05.038Z,4.60
2022-09-24T11:19:46.759Z,4.37
2022-09-24T11:22:17.505Z,4.05
2022-09-24T11:24:53.369Z,3.78
2022-09-24T11:27:50.855Z,3.40
2022-09-24T11:30:24.915Z,4.25
2022-09-24T11:33:29.803Z,3.38
2022-09-24T11:36:13.693Z,3.83
2022-09-24T11:39:08.227Z,3.88
2022-09-24T11:41:37.423Z,3.90
2022-09-24T11:44:11.289Z,3.65
2022-09-24T11:46:48.874Z,3.67
2022-09-24T11:49:24.490Z,3.42
2022-09-24T11:52:11.512Z,3.78
2022-09-24T11:54:46.675Z,3.83
2022-09-24T11:57:27.948Z,3.22
2022-09-24T11:59:54.543Z,3.17
2022-09-24T12:02:30.372Z,3.03
2022-09-24T12:05:03.150Z,3.00
2022-09-24T12:07:40.385Z,3.50
2022-09-24T12:10:32.934Z,2.92
2022-09-24T12:13:14.513Z,3.13
2022-09-24T12:15:50.606Z,2.88
2022-09-24T12:18:54.185Z,2.92
2022-09-24T12:21:28.243Z,2.70
2022-09-24T12:24:05.104Z,3.08
2022-09-24T12:26:37.911Z,2.92
2022-09-24T12:29:25.926Z,2.85
2022-09-24T12:32:22.519Z,2.72
2022-09-24T12:34:59.918Z,2.65
2022-09-24T12:37:34.271Z,2.72
2022-09-24T12:40:53.309Z,2.55
2022-09-24T12:43:28.165Z,2.20
2022-09-24T12:46:04.742Z,2.55
2022-09-24T12:48:36.886Z,2.42
2022-09-24T12:53:41.909Z,2.10
2022-09-24T12:56:10.363Z,2.00
2022-09-24T12:58:44.928Z,2.10
2022-09-24T13:01:26.871Z,1.95
2022-09-24T13:04:15.096Z,1.90
2022-09-24T13:06:43.868Z,2.15
2022-09-24T13:09:35.478Z,2.47
2022-09-24T13:12:18.088Z,2.22
2022-09-24T13:15:08.050Z,2.17
2022-09-24T13:17:38.371Z,2.05
2022-09-24T13:20:28.415Z,1.98
2022-09-24T13:23:31.754Z,1.73
2022-09-24T13:26:02.991Z,1.70
2022-09-24T13:28:38.701Z,2.00
2022-09-24T13:31:21.352Z,1.73
2022-09-24T13:36:35.602Z,1.77
2022-09-24T13:39:21.333Z,2.00
2022-09-24T13:42:06.416Z,2.13
2022-09-24T13:44:40.236Z,2.00
2022-09-24T13:47:27.596Z,2.38
2022-09-24T13:50:03.739Z,1.88
2022-09-24T13:52:38.503Z,2.20
2022-09-24T13:55:17.713Z,2.08
2022-09-24T13:57:46.290Z,2.30
2022-09-24T14:00:16.221Z,1.98
2022-09-24T14:02:53.694Z,1.83
2022-09-24T14:05:22.024Z,1.75
2022-09-24T14:08:06.705Z,2.33
2022-09-24T14:10:33.752Z,2.00
2022-09-24T14:13:22.991Z,1.85
2022-09-24T14:15:55.652Z,1.75
2022-09-24T14:18:23.635Z,1.83
2022-09-24T14:21:12.816Z,2.08
2022-09-24T14:23:48.234Z,2.17
2022-09-24T14:26:32.944Z,1.92
2022-09-24T14:29:03.619Z,1.77
2022-09-24T14:31:30.453Z,1.92
2022-09-24T14:34:01.688Z,1.70
2022-09-24T14:36:29.345Z,1.70
2022-09-24T14:39:02.748Z,1.83
2022-09-24T14:41:31.998Z,1.85
2022-09-24T14:44:03.803Z,1.80
2022-09-24T14:46:48.710Z,1.73
2022-09-24T14:49:27.265Z,1.60
2022-09-24T14:52:01.862Z,1.73
2022-09-24T14:54:35.468Z,2.20
2022-09-24T14:57:16.953Z,2.10
2022-09-24T14:59:44.957Z,1.90
2022-09-24T15:02:17.254Z,1.88
2022-09-24T15:04:50.104Z,1.77
2022-09-24T15:07:24.012Z,1.73
2022-09-24T15:09:53.240Z,2.00
2022-09-24T15:12:30.951Z,1.70
2022-09-24T15:14:57.517Z,1.83
2022-09-24T15:17:29.125Z,1.80
2022-09-24T15:19:57.996Z,1.60
2022-09-24T15:22:29.385Z,1.90
2022-09-24T15:25:01.646Z,1.90
2022-09-24T15:27:31.328Z,1.90
2022-09-24T15:29:59.992Z,1.80
2022-09-24T15:32:32.492Z,2.10
2022-09-24T15:34:59.734Z,1.67
2022-09-24T15:37:28.848Z,1.52
2022-09-24T15:40:05.243Z,2.40
2022-09-24T15:42:31.898Z,1.95
2022-09-24T15:44:58.960Z,2.05
2022-09-24T15:47:25.612Z,2.20
2022-09-24T15:49:52.211Z,2.00
2022-09-24T15:52:27.075Z,2.13
2022-09-24T15:54:55.833Z,2.40
2022-09-24T15:57:26.553Z,2.42
2022-09-24T15:59:53.661Z,2.05
2022-09-24T16:02:24.872Z,2.25
2022-09-24T16:04:52.082Z,2.40
2022-09-24T16:07:19.028Z,2.42
2022-09-24T16:09:45.707Z,2.30
2022-09-24T16:12:15.233Z,2.75
2022-09-24T16:14:41.832Z,2.50
2022-09-24T16:17:08.372Z,2.50
2022-09-24T16:19:35.067Z,2.63
2022-09-24T16:22:01.669Z,2.40
2022-09-24T16:24:32.258Z,2.70
2022-09-24T16:26:59.511Z,2.97
2022-09-24T16:29:26.137Z,2.83
2022-09-24T16:31:52.663Z,3.10
2022-09-24T16:34:19.232Z,2.55
2022-09-24T16:36:45.789Z,2.42
2022-09-24T16:39:12.373Z,2.40
2022-09-24T16:41:39.213Z,2.40
2022-09-24T16:44:06.877Z,2.85
2022-09-24T16:46:33.436Z,2.90
2022-09-24T16:49:00.101Z,2.70
2022-09-24T16:51:26.695Z,2.60
2022-09-24T16:53:56.799Z,2.85
2022-09-24T16:56:24.008Z,2.58
2022-09-24T16:58:51.108Z,2.65
2022-09-24T17:01:20.077Z,2.80
2022-09-24T17:03:57.925Z,2.50
2022-09-24T17:06:27.266Z,3.45
2022-09-24T17:09:13.039Z,3.38
2022-09-24T17:11:40.553Z,3.10
2022-09-24T17:14:13.395Z,3.38
2022-09-24T17:16:39.992Z,3.50
2022-09-24T17:19:08.171Z,2.83
2022-09-24T17:21:38.932Z,2.78
2022-09-24T17:24:06.070Z,3.05
2022-09-24T17:26:32.997Z,2.58
2022-09-24T17:28:59.522Z,2.50
2022-09-24T17:31:26.950Z,2.95
2022-09-24T17:33:58.460Z,2.95
2022-09-24T17:36:26.823Z,2.53
2022-09-24T17:38:53.776Z,2.83
2022-09-24T17:41:20.407Z,2.80
2022-09-24T17:43:48.088Z,2.88
2022-09-24T17:46:17.940Z,3.15
2022-09-24T17:48:46.374Z,2.60
2022-09-24T17:51:16.200Z,2.65
2022-09-24T17:53:43.309Z,2.75
2022-09-24T17:56:12.498Z,2.50
2022-09-24T17:58:44.133Z,3.20
2022-09-24T18:01:14.329Z,3.03
2022-09-24T18:03:41.412Z,3.03
2022-09-24T18:06:11.066Z,3.15
2022-09-24T18:08:42.461Z,3.10
2022-09-24T18:11:10.555Z,2.90
2022-09-24T18:13:37.380Z,2.85
2022-09-24T18:16:09.794Z,2.72
2022-09-24T18:18:36.784Z,2.80
2022-09-24T18:21:05.833Z,3.30
2022-09-24T18:23:35.033Z,2.72
2022-09-24T18:26:11.922Z,2.65
2022-09-24T18:28:58.737Z,2.95
2022-09-24T18:31:28.927Z,2.75
2022-09-24T18:33:58.308Z,3.00
2022-09-24T18:36:28.240Z,3.05
2022-09-24T18:38:56.017Z,2.83
2022-09-24T18:41:24.953Z,3.13
2022-09-24T18:43:53.654Z,3.95
2022-09-24T18:46:22.070Z,2.78
2022-09-24T18:48:50.845Z,2.92
2022-09-24T18:51:23.772Z,3.08
2022-09-24T18:53:55.675Z,4.00
2022-09-24T18:56:24.168Z,3.45
2022-09-24T18:59:09.451Z,2.97
2022-09-24T19:01:37.502Z,2.80
2022-09-24T19:04:05.213Z,2.58
2022-09-24T19:06:34.203Z,2.95
2022-09-24T19:09:00.858Z,2.72
2022-09-24T19:11:28.124Z,3.22
2022-09-24T19:13:54.661Z,3.50
2022-09-24T19:16:23.783Z,4.00
2022-09-24T19:18:51.922Z,5.22
2022-09-24T19:21:19.068Z,4.55
2022-09-24T19:23:50.461Z,4.30
2022-09-24T19:26:22.568Z,3.95
2022-09-24T19:28:53.150Z,3.60
2022-09-24T19:31:22.896Z,3.33
2022-09-24T19:33:50.717Z,3.67
2022-09-24T19:36:17.675Z,3.33
2022-09-24T19:38:44.800Z,3.65
2022-09-24T19:41:14.994Z,3.25
2022-09-24T19:43:43.572Z,3.15
2022-09-24T19:46:12.848Z,3.42
2022-09-24T19:48:41.409Z,3.10
2022-09-24T19:51:12.604Z,3.80
2022-09-24T19:53:39.279Z,3.83
2022-09-24T19:56:07.844Z,3.10
2022-09-24T19:58:34.893Z,2.90
2022-09-24T20:01:06.940Z,3.10
2022-09-24T20:06:11.787Z,3.72
2022-09-24T20:08:39.055Z,3.75
2022-09-24T20:11:07.589Z,3.78
2022-09-24T20:13:34.470Z,3.85
2022-09-24T20:16:03.550Z,3.90
2022-09-24T20:18:31.274Z,3.95
2022-09-24T20:21:05.468Z,4.60
2022-09-24T20:23:32.162Z,3.90
2022-09-24T20:26:17.285Z,4.10
2022-09-24T20:28:44.427Z,4.25
2022-09-24T20:31:15.140Z,4.07
2022-09-24T20:33:43.168Z,4.50
2022-09-24T20:36:16.544Z,5.13
2022-09-24T20:38:46.035Z,4.32
2022-09-24T20:41:15.221Z,4.50
2022-09-24T20:43:41.789Z,5.20
2022-09-24T20:46:14.284Z,5.15
2022-09-24T20:48:40.827Z,5.15
2022-09-24T20:51:12.094Z,5.28
2022-09-24T20:53:39.314Z,5.15
2022-09-24T20:56:06.460Z,5.25
2022-09-24T20:58:33.868Z,5.28
2022-09-24T21:01:01.074Z,5.32
2022-09-24T21:03:43.384Z,5.72
2022-09-24T21:06:12.740Z,5.45
2022-09-24T21:08:41.764Z,5.70
2022-09-24T21:11:13.609Z,5.20
2022-09-24T21:13:42.551Z,5.88
2022-09-24T21:16:10.256Z,5.72
2022-09-24T21:18:40.673Z,5.70
2022-09-24T21:21:15.472Z,5.30
2022-09-24T21:23:47.385Z,5.35
2022-09-24T21:26:15.507Z,5.68
2022-09-24T21:28:43.316Z,5.95
2022-09-24T21:31:10.210Z,6.22
2022-09-24T21:33:36.976Z,5.57
2022-09-24T21:36:05.702Z,5.65
2022-09-24T21:38:33.124Z,6.40
2022-09-24T21:41:01.387Z,6.25
2022-09-24T21:43:33.801Z,6.07
2022-09-24T21:46:05.025Z,6.28
2022-09-24T21:48:32.893Z,5.78
2022-09-24T21:51:07.141Z,5.95
2022-09-24T21:53:34.293Z,6.47
2022-09-24T21:56:02.272Z,6.55
2022-09-24T21:58:29.859Z,6.55
2022-09-24T22:01:00.921Z,6.43
2022-09-24T22:03:30.431Z,6.80
2022-09-24T22:05:59.329Z,6.65
2022-09-24T22:08:29.138Z,7.10
2022-09-24T22:11:07.748Z,7.05
2022-09-24T22:13:36.984Z,6.88
2022-09-24T22:16:05.646Z,6.88
2022-09-24T22:18:33.400Z,6.57
2022-09-24T22:21:04.639Z,7.75
2022-09-24T22:23:31.157Z,6.93
2022-09-24T22:25:59.446Z,7.30
2022-09-24T22:28:27.629Z,7.80
2022-09-24T22:30:59.424Z,7.57
2022-09-24T22:33:48.442Z,8.05
2022-09-24T22:36:15.751Z,7.20
2022-09-24T22:38:42.935Z,7.07
2022-09-24T22:41:11.057Z,7.65
2022-09-24T22:43:39.308Z,7.93
2022-09-24T22:46:08.932Z,7.70
2022-09-24T22:48:35.973Z,8.70
2022-09-24T22:51:04.245Z,7.85
2022-09-24T22:53:34.830Z,8.10
2022-09-24T22:56:10.334Z,8.30
2022-09-24T22:58:38.402Z,8.57
2022-09-24T23:01:09.643Z,8.00
2022-09-24T23:03:37.507Z,7.43
2022-09-24T23:06:08.306Z,8.32
2022-09-24T23:08:36.443Z,7.78
2022-09-24T23:11:07.166Z,8.27
2022-09-24T23:13:34.063Z,7.38
2022-09-24T23:16:10.257Z,7.70
2022-09-24T23:18:37.916Z,7.65
2022-09-24T23:21:10.057Z,7.50
2022-09-24T23:23:37.164Z,7.70
2022-09-24T23:26:16.260Z,7.90
2022-09-24T23:28:44.677Z,7.53
2022-09-24T23:31:14.256Z,7.75
2022-09-24T23:33:42.266Z,7.47
2022-09-24T23:36:11.272Z,8.57
2022-09-24T23:38:38.503Z,8.30
2022-09-24T23:41:06.461Z,8.45
2022-09-24T23:43:33.732Z,8.82
2022-09-24T23:46:01.304Z,8.82
2022-09-24T23:48:28.704Z,8.18
2022-09-24T23:50:55.775Z,8.02
2022-09-24T23:53:22.308Z,8.13
2022-09-24T23:55:49.858Z,8.45
2022-09-24T23:58:20.064Z,8.23
